Terminal Aerodrome Forecast
Issued by NWS

Home | Current Version | Previous Version | Text Only | Print | Product List | Glossary On
Versions: 1 2 3 4 5 6 7 8 9 10 11 12 13 14 15
000
FTUS45 KGJT 271140
TAFVEL
TAF
KVEL 271140Z 2712/2812 VRB03KT P6SM BKN100
     FM272100 33007KT P6SM BKN130
     FM280000 30009KT P6SM BKN140
     FM280200 33006KT P6SM BKN130=

USA.gov is the U.S. government's official web portal to all federal, state and local government web resources and services.